createdAt,value
2024-04-24T00:00:39.430Z,9.418286
2024-04-24T00:01:39.442Z,9.418301
2024-04-24T00:02:39.463Z,9.418287
2024-04-24T00:03:39.488Z,9.418300
2024-04-24T00:04:39.386Z,9.418333
2024-04-24T00:05:39.559Z,9.418355
2024-04-24T00:06:39.375Z,9.418386
2024-04-24T00:07:39.360Z,9.418321
2024-04-24T00:08:39.352Z,9.418364
2024-04-24T00:09:39.344Z,9.418307
2024-04-24T00:10:39.543Z,9.418308
2024-04-24T00:11:39.382Z,9.418360
2024-04-24T00:12:39.323Z,9.418322
2024-04-24T00:13:39.320Z,9.418287
2024-04-24T00:14:39.335Z,9.418344
2024-04-24T00:15:39.304Z,9.418368
2024-04-24T00:16:39.310Z,9.418344
2024-04-24T00:17:39.354Z,9.418321
2024-04-24T00:18:39.377Z,9.418307
2024-04-24T00:19:39.279Z,9.418223
2024-04-24T00:20:39.295Z,9.418250
2024-04-24T00:21:39.263Z,9.418353
2024-04-24T00:22:39.254Z,9.418304
2024-04-24T00:23:39.243Z,9.418286
2024-04-24T00:24:39.248Z,9.418408
2024-04-24T00:25:39.266Z,9.418709
2024-04-24T00:26:39.235Z,9.418631
2024-04-24T00:27:39.222Z,9.418923
2024-04-24T00:28:39.245Z,9.418679
2024-04-24T00:29:39.206Z,9.418550
2024-04-24T00:30:39.209Z,9.418658
2024-04-24T00:31:39.227Z,9.418874
2024-04-24T00:32:39.294Z,9.418702
2024-04-24T00:33:39.298Z,9.418957
2024-04-24T00:34:39.170Z,9.418716
2024-04-24T00:35:39.165Z,9.418710
2024-04-24T00:36:39.177Z,9.418427
2024-04-24T00:37:41.500Z,9.418500
2024-04-24T00:38:39.150Z,9.418389
2024-04-24T00:39:39.143Z,9.418323
2024-04-24T00:40:39.134Z,9.418415
2024-04-24T00:41:39.121Z,9.418466
2024-04-24T00:42:39.133Z,9.418535
2024-04-24T00:43:39.113Z,9.418435
2024-04-24T00:44:39.130Z,9.418427
2024-04-24T00:45:39.111Z,9.418529
2024-04-24T00:46:39.091Z,9.418411
2024-04-24T00:47:39.226Z,9.418260
2024-04-24T00:48:39.150Z,9.418287
2024-04-24T00:49:39.073Z,9.418405
2024-04-24T00:50:39.077Z,9.418320
2024-04-24T00:51:39.072Z,9.418318
2024-04-24T00:52:39.051Z,9.418310
2024-04-24T00:53:39.367Z,9.418308
2024-04-24T00:54:39.080Z,9.418332
2024-04-24T00:55:39.051Z,9.418263
2024-04-24T00:56:39.032Z,9.418282
2024-04-24T00:57:39.040Z,9.418252
2024-04-24T00:58:39.037Z,9.418406
2024-04-24T00:59:39.055Z,9.418379
2024-04-24T01:00:41.310Z,9.418286
2024-04-24T01:01:40.000Z,9.418296
2024-04-24T01:02:39.016Z,9.418269
2024-04-24T01:03:39.014Z,9.418264
2024-04-24T01:04:38.982Z,9.418329
2024-04-24T01:05:38.983Z,9.418265
2024-04-24T01:06:38.967Z,9.418265
2024-04-24T01:07:38.992Z,9.418269
2024-04-24T01:08:38.980Z,9.418201
2024-04-24T01:09:38.936Z,9.418164
2024-04-24T01:10:38.959Z,9.418208
2024-04-24T01:11:38.964Z,9.418274
2024-04-24T01:12:38.924Z,9.418226
2024-04-24T01:13:38.942Z,9.418143
2024-04-24T01:14:38.917Z,9.418159
2024-04-24T01:15:38.904Z,9.418201
2024-04-24T01:16:38.912Z,9.418228
2024-04-24T01:17:38.966Z,9.418249
2024-04-24T01:18:38.956Z,9.418253
2024-04-24T01:19:38.869Z,9.418228
2024-04-24T01:20:38.865Z,9.418253
2024-04-24T01:21:38.855Z,9.418263
2024-04-24T01:22:38.854Z,9.418310
2024-04-24T01:23:38.859Z,9.418285
2024-04-24T01:24:38.857Z,9.418325
2024-04-24T01:25:38.842Z,9.418273
2024-04-24T01:26:38.845Z,9.418269
2024-04-24T01:27:38.818Z,9.418322
2024-04-24T01:28:38.808Z,9.418321
2024-04-24T01:29:38.823Z,9.418252
2024-04-24T01:30:38.790Z,9.418305
2024-04-24T01:31:38.860Z,9.418286
2024-04-24T01:32:38.905Z,9.418281
2024-04-24T01:33:38.793Z,9.418320
2024-04-24T01:34:38.766Z,9.418318
2024-04-24T01:35:38.758Z,9.418300
2024-04-24T01:36:38.766Z,9.418303
2024-04-24T01:37:38.769Z,9.418259
2024-04-24T01:38:38.752Z,9.418226
2024-04-24T01:39:38.736Z,9.418221
2024-04-24T01:40:39.750Z,9.418263
2024-04-24T01:41:38.734Z,9.418298
2024-04-24T01:42:38.730Z,9.418214
2024-04-24T01:43:38.720Z,9.418261
2024-04-24T01:44:38.694Z,9.418242
2024-04-24T01:45:38.700Z,9.418267
2024-04-24T01:46:38.692Z,9.418327
2024-04-24T01:47:38.829Z,9.418331
2024-04-24T01:48:38.808Z,9.418319
2024-04-24T01:49:38.666Z,9.418337
2024-04-24T01:50:38.676Z,9.418222
2024-04-24T01:51:38.662Z,9.418191
2024-04-24T01:52:38.650Z,9.418217
2024-04-24T01:53:38.671Z,9.418262
2024-04-24T01:54:38.623Z,9.418260
2024-04-24T01:55:38.644Z,9.418242
2024-04-24T01:56:38.619Z,9.418257
2024-04-24T01:57:38.612Z,9.418226
2024-04-24T01:58:38.598Z,9.418223
2024-04-24T01:59:38.598Z,9.418270
2024-04-24T02:00:38.606Z,9.418250
2024-04-24T02:01:38.594Z,9.418250
2024-04-24T02:02:38.581Z,9.418198
2024-04-24T02:03:38.587Z,9.418258
2024-04-24T02:04:38.570Z,9.418255
2024-04-24T02:05:38.558Z,9.418298
2024-04-24T02:06:38.551Z,9.418298
2024-04-24T02:07:38.550Z,9.418262
2024-04-24T02:08:38.555Z,9.418237
2024-04-24T02:09:38.564Z,9.418267
2024-04-24T02:10:38.520Z,9.418216
2024-04-24T02:11:38.615Z,9.418234
2024-04-24T02:12:38.528Z,9.418217
2024-04-24T02:13:38.505Z,9.418236
2024-04-24T02:14:38.528Z,9.418303
2024-04-24T02:15:38.489Z,9.418386
2024-04-24T02:16:38.479Z,9.418292
2024-04-24T02:17:38.540Z,9.418250
2024-04-24T02:18:38.598Z,9.418227
2024-04-24T02:19:38.552Z,9.418245
2024-04-24T02:20:38.496Z,9.418231
2024-04-24T02:21:38.445Z,9.418280
2024-04-24T02:22:38.449Z,9.418291
2024-04-24T02:23:38.448Z,9.418280
2024-04-24T02:24:38.578Z,9.418309
2024-04-24T02:25:38.426Z,9.418279
2024-04-24T02:26:38.428Z,9.418294
2024-04-24T02:27:38.419Z,9.418276
2024-04-24T02:28:38.422Z,9.418304
2024-04-24T02:29:47.940Z,9.418315
2024-04-24T02:30:40.391Z,9.418328
2024-04-24T02:31:38.396Z,9.418343
2024-04-24T02:32:38.724Z,9.418413
2024-04-24T02:33:38.447Z,9.418335
2024-04-24T02:34:38.371Z,9.418326
2024-04-24T02:35:38.360Z,9.418290
2024-04-24T02:36:38.388Z,9.418324
2024-04-24T02:37:39.463Z,9.418348
2024-04-24T02:38:38.332Z,9.418301
2024-04-24T02:39:38.338Z,9.418282
2024-04-24T02:40:38.316Z,9.418298
2024-04-24T02:41:38.322Z,9.418398
2024-04-24T02:42:38.321Z,9.418293
2024-04-24T02:43:38.299Z,9.418339
2024-04-24T02:44:38.305Z,9.418207
2024-04-24T02:45:38.289Z,9.418316
2024-04-24T02:46:38.277Z,9.418334
2024-04-24T02:47:38.391Z,9.418299
2024-04-24T02:48:38.325Z,9.418416
2024-04-24T02:49:38.254Z,9.418346
2024-04-24T02:50:38.240Z,9.418408
2024-04-24T02:51:38.236Z,9.418327
2024-04-24T02:52:38.237Z,9.418389
2024-04-24T02:53:38.257Z,9.418372
2024-04-24T02:54:38.233Z,9.418407
2024-04-24T02:55:38.213Z,9.418387
2024-04-24T02:56:38.213Z,9.418354
2024-04-24T02:57:38.208Z,9.418299
2024-04-24T02:58:38.220Z,9.418304
2024-04-24T02:59:38.214Z,9.418439
2024-04-24T03:00:38.226Z,9.418489
2024-04-24T03:01:38.185Z,9.418359
2024-04-24T03:02:38.307Z,9.418414
2024-04-24T03:03:38.199Z,9.418359
2024-04-24T03:04:38.172Z,9.418406
2024-04-24T03:05:38.162Z,9.418415
2024-04-24T03:06:38.148Z,9.418315
2024-04-24T03:07:38.136Z,9.418402
2024-04-24T03:08:38.127Z,9.418405
2024-04-24T03:09:38.138Z,9.418416
2024-04-24T03:10:38.129Z,9.418468
2024-04-24T03:11:38.295Z,9.418428
2024-04-24T03:12:38.093Z,9.418391
2024-04-24T03:13:38.084Z,9.418359
2024-04-24T03:14:38.092Z,9.418416
2024-04-24T03:15:38.090Z,9.418377
2024-04-24T03:16:38.080Z,9.418409
2024-04-24T03:17:38.237Z,9.418346
2024-04-24T03:18:38.060Z,9.418352
2024-04-24T03:19:38.088Z,9.418386
2024-04-24T03:20:38.079Z,9.418446
2024-04-24T03:21:38.038Z,9.418363
2024-04-24T03:22:38.022Z,9.418329
2024-04-24T03:23:38.040Z,9.418346
2024-04-24T03:24:38.028Z,9.418324
2024-04-24T03:25:38.001Z,9.418369
2024-04-24T03:26:38.003Z,9.418275
2024-04-24T03:27:37.979Z,9.418294
2024-04-24T03:28:37.975Z,9.418361
2024-04-24T03:29:38.048Z,9.418321
2024-04-24T03:30:37.985Z,9.418282
2024-04-24T03:31:37.997Z,9.418310
2024-04-24T03:32:38.011Z,9.418318
2024-04-24T03:33:38.008Z,9.418307
2024-04-24T03:34:38.010Z,9.418301
2024-04-24T03:35:37.946Z,9.418321
2024-04-24T03:36:37.949Z,9.418330
2024-04-24T03:37:37.938Z,9.418345
2024-04-24T03:38:37.922Z,9.418283
2024-04-24T03:39:37.894Z,9.418262
2024-04-24T03:40:37.906Z,9.418264
2024-04-24T03:41:37.914Z,9.418294
2024-04-24T03:42:38.176Z,9.418323
2024-04-24T03:43:37.879Z,9.418309
2024-04-24T03:44:37.885Z,9.418296
2024-04-24T03:45:37.877Z,9.418356
2024-04-24T03:46:37.911Z,9.418351
2024-04-24T03:47:37.997Z,9.418321
2024-04-24T03:48:40.193Z,9.418309
2024-04-24T03:49:38.859Z,9.418290
2024-04-24T03:50:37.855Z,9.418265
2024-04-24T03:51:37.835Z,9.418298
2024-04-24T03:52:39.069Z,9.418299
2024-04-24T03:53:37.812Z,9.418265
2024-04-24T03:54:37.826Z,9.418260
2024-04-24T03:55:37.806Z,9.418230
2024-04-24T03:56:37.803Z,9.418264
2024-04-24T03:57:37.801Z,9.418281
2024-04-24T03:58:37.807Z,9.418210
2024-04-24T03:59:37.790Z,9.418266
2024-04-24T04:00:37.774Z,9.418320
2024-04-24T04:01:37.780Z,9.418110
2024-04-24T04:02:37.852Z,9.418133
2024-04-24T04:03:37.799Z,9.418273
2024-04-24T04:04:37.764Z,9.418237
2024-04-24T04:05:37.751Z,9.418297
2024-04-24T04:06:37.747Z,9.418253
2024-04-24T04:07:37.734Z,9.418233
2024-04-24T04:08:37.743Z,9.418206
2024-04-24T04:09:37.732Z,9.418209
2024-04-24T04:10:37.708Z,9.418243
2024-04-24T04:11:37.820Z,9.418258
2024-04-24T04:12:37.696Z,9.418297
2024-04-24T04:13:37.692Z,9.418209
2024-04-24T04:14:37.698Z,9.418287
2024-04-24T04:15:37.694Z,9.418123
2024-04-24T04:16:37.678Z,9.418127
2024-04-24T04:17:37.813Z,9.418281
2024-04-24T04:18:37.746Z,9.418243
2024-04-24T04:19:37.666Z,9.418324
2024-04-24T04:20:37.630Z,9.418289
2024-04-24T04:21:37.638Z,9.418250
2024-04-24T04:22:41.090Z,9.418214
2024-04-24T04:23:38.628Z,9.418239
2024-04-24T04:24:37.622Z,9.418200
2024-04-24T04:25:37.608Z,9.418204
2024-04-24T04:26:37.584Z,9.418167
2024-04-24T04:27:37.589Z,9.418245
2024-04-24T04:28:37.585Z,9.418327
2024-04-24T04:29:37.594Z,9.418405
2024-04-24T04:30:37.581Z,9.418407
2024-04-24T04:31:37.568Z,9.418228
2024-04-24T04:32:37.676Z,9.418363
2024-04-24T04:33:37.670Z,9.418362
2024-04-24T04:34:37.547Z,9.418344
2024-04-24T04:35:37.561Z,9.418317
2024-04-24T04:36:37.540Z,9.418336
2024-04-24T04:37:39.529Z,9.418302
2024-04-24T04:38:38.530Z,9.418267
2024-04-24T04:39:37.606Z,9.418278
2024-04-24T04:40:37.516Z,9.418272
2024-04-24T04:41:37.496Z,9.418122
2024-04-24T04:42:37.492Z,9.418150
2024-04-24T04:43:37.491Z,9.418315
2024-04-24T04:44:37.484Z,9.418415
2024-04-24T04:45:37.498Z,9.418250
2024-04-24T04:46:37.467Z,9.418252
2024-04-24T04:47:37.538Z,9.418330
2024-04-24T04:48:37.483Z,9.418295
2024-04-24T04:49:37.435Z,9.418353
2024-04-24T04:50:37.462Z,9.418298
2024-04-24T04:51:37.423Z,9.418258
2024-04-24T04:52:37.500Z,9.418258
2024-04-24T04:53:37.409Z,9.418280
2024-04-24T04:54:37.413Z,9.418256
2024-04-24T04:55:37.397Z,9.418257
2024-04-24T04:56:37.736Z,9.418179
2024-04-24T04:57:37.387Z,9.418344
2024-04-24T04:58:37.385Z,9.418263
2024-04-24T04:59:37.472Z,9.418287
2024-04-24T05:00:37.445Z,9.418262
2024-04-24T05:01:37.376Z,9.418294
2024-04-24T05:02:37.431Z,9.418283
2024-04-24T05:03:37.337Z,9.418309
2024-04-24T05:04:37.344Z,9.418327
2024-04-24T05:05:37.442Z,9.418365
2024-04-24T05:06:37.329Z,9.418391
2024-04-24T05:07:37.315Z,9.418224
2024-04-24T05:08:37.315Z,9.418263
2024-04-24T05:09:37.323Z,9.418197
2024-04-24T05:10:37.290Z,9.418138
2024-04-24T05:11:37.385Z,9.418153
2024-04-24T05:12:37.288Z,9.418198
2024-04-24T05:13:37.288Z,9.418103
2024-04-24T05:14:37.313Z,9.418141
2024-04-24T05:15:37.269Z,9.418229
2024-04-24T05:16:37.897Z,9.418228
2024-04-24T05:17:37.373Z,9.418232
2024-04-24T05:18:37.381Z,9.418240
2024-04-24T05:19:37.243Z,9.418279
2024-04-24T05:20:37.279Z,9.418287
2024-04-24T05:21:37.281Z,9.418349
2024-04-24T05:22:37.236Z,9.418334
2024-04-24T05:23:38.574Z,9.418315
2024-04-24T05:24:38.195Z,9.418262
2024-04-24T05:25:37.194Z,9.418283
2024-04-24T05:26:37.188Z,9.418269
2024-04-24T05:27:37.217Z,9.418305
2024-04-24T05:28:37.199Z,9.418338
2024-04-24T05:29:37.164Z,9.418353
2024-04-24T05:30:37.363Z,9.418359
2024-04-24T05:31:37.154Z,9.418451
2024-04-24T05:32:37.262Z,9.418473
2024-04-24T05:33:37.222Z,9.418335
2024-04-24T05:34:37.125Z,9.418244
2024-04-24T05:35:37.129Z,9.418285
2024-04-24T05:36:37.191Z,9.418337
2024-04-24T05:37:37.133Z,9.418253
2024-04-24T05:38:37.134Z,9.418207
2024-04-24T05:39:37.113Z,9.418255
2024-04-24T05:40:37.105Z,9.418273
2024-04-24T05:41:37.095Z,9.418256
2024-04-24T05:42:37.082Z,9.418363
2024-04-24T05:43:37.075Z,9.418410
2024-04-24T05:44:37.078Z,9.418268
2024-04-24T05:45:37.065Z,9.418241
2024-04-24T05:46:37.050Z,9.418096
2024-04-24T05:47:37.152Z,9.418227
2024-04-24T05:48:37.094Z,9.418218
2024-04-24T05:49:37.049Z,9.418253
2024-04-24T05:50:37.028Z,9.418268
2024-04-24T05:51:37.018Z,9.418343
2024-04-24T05:52:37.071Z,9.418296
2024-04-24T05:53:37.016Z,9.418350
2024-04-24T05:54:36.998Z,9.418459
2024-04-24T05:55:37.057Z,9.418284
2024-04-24T05:56:36.998Z,9.418398
2024-04-24T05:57:37.042Z,9.418308
2024-04-24T05:58:37.048Z,9.418280
2024-04-24T05:59:37.089Z,9.418350
2024-04-24T06:00:37.261Z,9.418365
2024-04-24T06:01:37.968Z,9.418328
2024-04-24T06:02:37.049Z,9.418307
2024-04-24T06:03:36.985Z,9.418272
2024-04-24T06:04:37.901Z,9.418255
2024-04-24T06:05:36.986Z,9.418275
2024-04-24T06:06:36.931Z,9.418274
2024-04-24T06:07:36.920Z,9.418289
2024-04-24T06:08:36.923Z,9.418273
2024-04-24T06:09:36.905Z,9.418320
2024-04-24T06:10:36.919Z,9.418288
2024-04-24T06:11:37.886Z,9.418279
2024-04-24T06:12:37.023Z,9.418302
2024-04-24T06:13:36.888Z,9.418317
2024-04-24T06:14:36.871Z,9.418278
2024-04-24T06:15:36.870Z,9.418278
2024-04-24T06:16:36.873Z,9.418377
2024-04-24T06:17:37.062Z,9.418326
2024-04-24T06:18:37.011Z,9.418324
2024-04-24T06:19:36.841Z,9.418317
2024-04-24T06:20:36.829Z,9.418339
2024-04-24T06:21:36.838Z,9.418314
2024-04-24T06:22:36.853Z,9.418309
2024-04-24T06:23:36.823Z,9.418304
2024-04-24T06:24:36.811Z,9.418287
2024-04-24T06:25:36.828Z,9.418280
2024-04-24T06:26:36.806Z,9.418283
2024-04-24T06:27:36.838Z,9.418312
2024-04-24T06:28:36.796Z,9.418301
2024-04-24T06:29:36.779Z,9.418262
2024-04-24T06:30:36.772Z,9.418321
2024-04-24T06:31:36.787Z,9.418292
2024-04-24T06:32:36.933Z,9.418286
2024-04-24T06:33:36.823Z,9.418353
2024-04-24T06:34:36.795Z,9.418318
2024-04-24T06:35:36.854Z,9.418348
2024-04-24T06:36:36.748Z,9.418269
2024-04-24T06:37:36.749Z,9.418270
2024-04-24T06:38:36.735Z,9.418257
2024-04-24T06:39:36.727Z,9.418344
2024-04-24T06:40:37.799Z,9.418323
2024-04-24T06:41:36.735Z,9.418298
2024-04-24T06:42:36.995Z,9.418284
2024-04-24T06:43:36.726Z,9.418285
2024-04-24T06:44:36.668Z,9.418295
2024-04-24T06:45:36.713Z,9.418242
2024-04-24T06:46:36.663Z,9.418291
2024-04-24T06:47:36.702Z,9.418283
2024-04-24T06:48:36.758Z,9.418268
2024-04-24T06:49:36.630Z,9.418340
2024-04-24T06:50:36.753Z,9.418337
2024-04-24T06:51:36.635Z,9.418371
2024-04-24T06:52:36.623Z,9.418313
2024-04-24T06:53:36.688Z,9.418309
2024-04-24T06:54:36.603Z,9.418300
2024-04-24T06:55:36.607Z,9.418244
2024-04-24T06:56:36.609Z,9.418326
2024-04-24T06:57:36.580Z,9.418345
2024-04-24T06:58:36.608Z,9.418230
2024-04-24T06:59:36.575Z,9.418280
2024-04-24T07:00:36.653Z,9.418377
2024-04-24T07:01:36.692Z,9.418342
2024-04-24T07:02:36.556Z,9.418329
2024-04-24T07:03:36.630Z,9.418257
2024-04-24T07:04:36.543Z,9.418305
2024-04-24T07:05:36.524Z,9.418350
2024-04-24T07:06:36.529Z,9.418543
2024-04-24T07:07:36.538Z,9.418337
2024-04-24T07:08:36.549Z,9.418313
2024-04-24T07:09:36.646Z,9.418244
2024-04-24T07:10:36.509Z,9.418225
2024-04-24T07:11:36.705Z,9.418308
2024-04-24T07:12:36.481Z,9.418284
2024-04-24T07:13:36.468Z,9.418400
2024-04-24T07:14:36.476Z,9.418229
2024-04-24T07:15:36.466Z,9.418312
2024-04-24T07:16:36.453Z,9.418252
2024-04-24T07:17:36.627Z,9.418267
2024-04-24T07:18:36.496Z,9.418283
2024-04-24T07:19:36.435Z,9.418376
2024-04-24T07:20:36.465Z,9.418230
2024-04-24T07:21:36.413Z,9.418254
2024-04-24T07:22:36.409Z,9.418226
2024-04-24T07:23:36.417Z,9.418276
2024-04-24T07:24:36.394Z,9.418352
2024-04-24T07:25:36.395Z,9.418344
2024-04-24T07:26:36.382Z,9.418214
2024-04-24T07:27:36.373Z,9.418263
2024-04-24T07:28:36.377Z,9.418354
2024-04-24T07:29:36.373Z,9.418235
2024-04-24T07:30:37.329Z,9.418185
2024-04-24T07:31:36.347Z,9.418353
2024-04-24T07:32:36.421Z,9.418167
2024-04-24T07:33:36.379Z,9.418178
2024-04-24T07:34:36.331Z,9.418234
2024-04-24T07:35:36.374Z,9.418353
2024-04-24T07:36:36.493Z,9.418272
2024-04-24T07:37:36.312Z,9.418284
2024-04-24T07:38:36.362Z,9.418268
2024-04-24T07:39:36.326Z,9.418319
2024-04-24T07:40:36.285Z,9.418278
2024-04-24T07:41:37.865Z,9.418284
2024-04-24T07:42:36.288Z,9.418283
2024-04-24T07:43:36.273Z,9.418295
2024-04-24T07:44:36.241Z,9.418273
2024-04-24T07:45:36.243Z,9.418327
2024-04-24T07:46:36.234Z,9.418321
2024-04-24T07:47:36.394Z,9.418238
2024-04-24T07:48:36.383Z,9.418168
2024-04-24T07:49:36.239Z,9.418238
2024-04-24T07:50:36.236Z,9.418253
2024-04-24T07:51:36.196Z,9.418250
2024-04-24T07:52:36.230Z,9.418181
2024-04-24T07:53:36.490Z,9.418141
2024-04-24T07:54:37.178Z,9.418244
2024-04-24T07:55:36.250Z,9.418248
2024-04-24T07:56:36.193Z,9.418270
2024-04-24T07:57:36.147Z,9.418302
2024-04-24T07:58:36.254Z,9.418267
2024-04-24T07:59:36.162Z,9.418201
2024-04-24T08:00:36.221Z,9.418236
2024-04-24T08:01:36.139Z,9.418229
2024-04-24T08:02:36.328Z,9.418258
2024-04-24T08:03:36.246Z,9.418278
2024-04-24T08:04:36.166Z,9.418289
2024-04-24T08:05:36.157Z,9.418333
2024-04-24T08:06:36.086Z,9.418202
2024-04-24T08:07:36.081Z,9.418272
2024-04-24T08:08:36.111Z,9.418228
2024-04-24T08:09:36.078Z,9.418269
2024-04-24T08:10:36.084Z,9.418248
2024-04-24T08:11:36.133Z,9.418241
2024-04-24T08:12:36.047Z,9.418255
2024-04-24T08:13:36.045Z,9.418202
2024-04-24T08:14:36.047Z,9.418223
2024-04-24T08:15:36.041Z,9.418128
2024-04-24T08:16:36.036Z,9.418230
2024-04-24T08:17:36.142Z,9.418318
2024-04-24T08:18:36.000Z,9.418316
2024-04-24T08:19:36.013Z,9.418287
2024-04-24T08:20:36.067Z,9.418159
2024-04-24T08:21:36.008Z,9.418244
2024-04-24T08:22:36.014Z,9.418164
2024-04-24T08:23:36.073Z,9.418244
2024-04-24T08:24:35.975Z,9.418185
2024-04-24T08:25:35.965Z,9.418200
2024-04-24T08:26:35.982Z,9.418172
2024-04-24T08:27:35.973Z,9.418133
2024-04-24T08:28:40.975Z,9.418193
2024-04-24T08:29:38.026Z,9.418123
2024-04-24T08:30:35.943Z,9.417993
2024-04-24T08:31:35.921Z,9.418120
2024-04-24T08:32:36.037Z,9.418187
2024-04-24T08:33:36.954Z,9.418186
2024-04-24T08:34:35.918Z,9.418178
2024-04-24T08:35:35.921Z,9.418291
2024-04-24T08:36:35.907Z,9.418283
2024-04-24T08:37:35.886Z,9.418214
2024-04-24T08:38:35.890Z,9.418334
2024-04-24T08:39:35.874Z,9.418293
2024-04-24T08:40:35.876Z,9.418388
2024-04-24T08:41:35.899Z,9.418260
2024-04-24T08:42:35.852Z,9.418228
2024-04-24T08:43:35.851Z,9.418292
2024-04-24T08:44:35.972Z,9.418308
2024-04-24T08:45:35.847Z,9.418262
2024-04-24T08:46:35.832Z,9.418251
2024-04-24T08:47:36.103Z,9.418239
2024-04-24T08:48:35.843Z,9.418223
2024-04-24T08:49:35.810Z,9.418284
2024-04-24T08:50:35.825Z,9.418305
2024-04-24T08:51:35.786Z,9.418293
2024-04-24T08:52:35.783Z,9.418329
2024-04-24T08:53:35.791Z,9.418342
2024-04-24T08:54:35.758Z,9.418375
2024-04-24T08:55:35.759Z,9.418299
2024-04-24T08:56:35.806Z,9.418301
2024-04-24T08:57:35.769Z,9.418353
2024-04-24T08:58:35.751Z,9.418315
2024-04-24T08:59:35.770Z,9.418310
2024-04-24T09:00:35.739Z,9.418321
2024-04-24T09:01:35.730Z,9.418317
2024-04-24T09:02:35.916Z,9.418242
2024-04-24T09:03:35.870Z,9.418224
2024-04-24T09:04:35.728Z,9.418238
2024-04-24T09:05:35.701Z,9.418204
2024-04-24T09:06:35.690Z,9.418250
2024-04-24T09:07:35.689Z,9.418297
2024-04-24T09:08:35.718Z,9.418250
2024-04-24T09:09:35.657Z,9.418257
2024-04-24T09:10:35.664Z,9.418260
2024-04-24T09:11:35.722Z,9.418284
2024-04-24T09:12:35.654Z,9.418264
2024-04-24T09:13:35.640Z,9.418278
2024-04-24T09:14:35.743Z,9.418292
2024-04-24T09:15:35.630Z,9.418281
2024-04-24T09:16:35.598Z,9.418294
2024-04-24T09:17:35.784Z,9.418418
2024-04-24T09:18:35.653Z,9.418379
2024-04-24T09:19:35.599Z,9.418288
2024-04-24T09:20:35.632Z,9.418265
2024-04-24T09:21:35.586Z,9.418309
2024-04-24T09:22:35.630Z,9.418360
2024-04-24T09:23:35.596Z,9.418331
2024-04-24T09:24:35.554Z,9.418384
2024-04-24T09:25:35.619Z,9.418277
2024-04-24T09:26:35.611Z,9.418345
2024-04-24T09:27:35.536Z,9.418295
2024-04-24T09:28:35.552Z,9.418300
2024-04-24T09:29:35.615Z,9.418367
2024-04-24T09:30:35.553Z,9.418262
2024-04-24T09:31:35.519Z,9.418196
2024-04-24T09:32:35.618Z,9.418292
2024-04-24T09:33:35.599Z,9.418291
2024-04-24T09:34:35.512Z,9.418250
2024-04-24T09:35:35.533Z,9.418331
2024-04-24T09:36:35.483Z,9.418271
2024-04-24T09:37:35.512Z,9.418255
2024-04-24T09:38:35.488Z,9.418109
2024-04-24T09:39:35.491Z,9.418167
2024-04-24T09:40:35.451Z,9.418197
2024-04-24T09:41:35.493Z,9.418174
2024-04-24T09:42:35.437Z,9.418111
2024-04-24T09:43:35.433Z,9.418075
2024-04-24T09:44:35.633Z,9.418140
2024-04-24T09:45:36.437Z,9.418170
2024-04-24T09:46:35.439Z,9.418204
2024-04-24T09:47:35.554Z,9.418431
2024-04-24T09:48:35.553Z,9.418356
2024-04-24T09:49:35.404Z,9.418354
2024-04-24T09:50:35.460Z,9.418311
2024-04-24T09:51:35.386Z,9.418297
2024-04-24T09:52:35.374Z,9.418295
2024-04-24T09:53:35.392Z,9.418278
2024-04-24T09:54:35.390Z,9.418307
2024-04-24T09:55:35.363Z,9.418281
2024-04-24T09:56:35.389Z,9.418269
2024-04-24T09:57:35.392Z,9.418259
2024-04-24T09:58:35.342Z,9.418303
2024-04-24T09:59:35.390Z,9.418442
2024-04-24T10:00:35.330Z,9.418468
2024-04-24T10:01:35.338Z,9.418333
2024-04-24T10:02:35.447Z,9.418328
2024-04-24T10:03:35.348Z,9.418381
2024-04-24T10:04:35.316Z,9.418244
2024-04-24T10:05:39.690Z,9.418208
2024-04-24T10:06:37.286Z,9.418202
2024-04-24T10:07:35.289Z,9.418127
2024-04-24T10:08:35.325Z,9.418188
2024-04-24T10:09:35.299Z,9.418191
2024-04-24T10:10:35.262Z,9.418086
2024-04-24T10:11:35.300Z,9.418018
2024-04-24T10:12:35.242Z,9.418239
2024-04-24T10:13:35.266Z,9.418277
2024-04-24T10:14:35.293Z,9.418279
2024-04-24T10:15:35.219Z,9.418194
2024-04-24T10:16:35.253Z,9.418313
2024-04-24T10:17:35.339Z,9.418228
2024-04-24T10:18:35.313Z,9.418293
2024-04-24T10:19:35.214Z,9.418344
2024-04-24T10:20:35.311Z,9.418282
2024-04-24T10:21:35.194Z,9.418277
2024-04-24T10:22:35.178Z,9.418257
2024-04-24T10:23:37.467Z,9.418280
2024-04-24T10:24:35.196Z,9.418257
2024-04-24T10:25:35.174Z,9.418314
2024-04-24T10:26:35.172Z,9.418252
2024-04-24T10:27:35.141Z,9.418200
2024-04-24T10:28:35.147Z,9.418321
2024-04-24T10:29:35.808Z,9.418267
2024-04-24T10:30:35.131Z,9.418296
2024-04-24T10:31:35.119Z,9.418279
2024-04-24T10:32:35.223Z,9.418346
2024-04-24T10:33:35.211Z,9.418416
2024-04-24T10:34:35.108Z,9.418450
2024-04-24T10:35:35.114Z,9.418413
2024-04-24T10:36:35.104Z,9.418259
2024-04-24T10:37:35.089Z,9.418275
2024-04-24T10:38:35.130Z,9.418222
2024-04-24T10:39:35.069Z,9.418332
2024-04-24T10:40:35.067Z,9.418261
2024-04-24T10:41:35.147Z,9.418159
2024-04-24T10:42:35.049Z,9.418261
2024-04-24T10:43:35.226Z,9.418193
2024-04-24T10:44:35.108Z,9.418308
2024-04-24T10:45:35.037Z,9.418391
2024-04-24T10:46:35.035Z,9.418230
2024-04-24T10:47:35.131Z,9.418283
2024-04-24T10:48:35.048Z,9.418214
2024-04-24T10:49:34.995Z,9.418248
2024-04-24T10:50:35.155Z,9.418569
2024-04-24T10:51:35.150Z,9.418263
2024-04-24T10:52:34.991Z,9.418365
2024-04-24T10:53:48.411Z,9.418338
2024-04-24T10:54:36.979Z,9.418357
2024-04-24T10:55:34.976Z,9.418298
2024-04-24T10:56:39.110Z,9.418266
2024-04-24T10:57:37.114Z,9.418320
2024-04-24T10:58:34.948Z,9.418289
2024-04-24T10:59:35.046Z,9.418254
2024-04-24T11:00:34.953Z,9.418267
2024-04-24T11:01:42.691Z,9.418128
2024-04-24T11:02:37.002Z,9.418258
2024-04-24T11:03:34.988Z,9.418427
2024-04-24T11:04:34.905Z,9.418272
2024-04-24T11:05:35.122Z,9.418202
2024-04-24T11:06:34.924Z,9.418163
2024-04-24T11:07:38.356Z,9.418314
2024-04-24T11:08:35.953Z,9.418262
2024-04-24T11:09:34.881Z,9.418180
2024-04-24T11:10:34.868Z,9.418239
2024-04-24T11:11:35.016Z,9.418200
2024-04-24T11:12:34.885Z,9.418279
2024-04-24T11:13:34.855Z,9.418237
2024-04-24T11:14:34.839Z,9.418232
2024-04-24T11:15:34.809Z,9.418251
2024-04-24T11:16:34.814Z,9.418305
2024-04-24T11:17:35.082Z,9.418390
2024-04-24T11:18:34.867Z,9.418561
2024-04-24T11:19:34.822Z,9.418496
2024-04-24T11:20:34.850Z,9.418412
2024-04-24T11:21:34.763Z,9.418377
2024-04-24T11:22:34.777Z,9.418307
2024-04-24T11:23:34.785Z,9.418319
2024-04-24T11:24:34.752Z,9.418243
2024-04-24T11:25:42.269Z,9.418240
2024-04-24T11:26:36.910Z,9.418303
2024-04-24T11:27:34.753Z,9.418291
2024-04-24T11:28:34.732Z,9.418213
2024-04-24T11:29:34.752Z,9.418190
2024-04-24T11:30:34.710Z,9.418186
2024-04-24T11:31:34.696Z,9.418190
2024-04-24T11:32:34.809Z,9.418221
2024-04-24T11:33:34.942Z,9.418200
2024-04-24T11:34:34.703Z,9.418228
2024-04-24T11:35:34.691Z,9.418260
2024-04-24T11:36:34.685Z,9.418182
2024-04-24T11:37:34.693Z,9.418215
2024-04-24T11:38:35.679Z,9.418300
2024-04-24T11:39:34.634Z,9.418210
2024-04-24T11:40:34.623Z,9.418256
2024-04-24T11:41:34.710Z,9.418304
2024-04-24T11:42:34.647Z,9.418278
2024-04-24T11:43:34.644Z,9.418298
2024-04-24T11:44:34.697Z,9.418249